Time;durP1;ratioP1;P1;durP2;ratioP2;P2;SDS_P1;SDS_P2;PMS_P1;PMS_P2;Temp;Humidity;BMP_temperature;BMP_pressure;BME280_temperature;BME280_humidity;BME280_pressure;Samples;Min_cycle;Max_cycle;Signal;HPM_P1;HPM_P2
2021/05/31 00:00:18;;;;;;;29.58;13.30;;;13.90;99.90;;;;;;2066404;28;20535;-62
2021/05/31 00:01:19;;;;;;;23.13;12.93;;;13.90;99.90;;;;;;2059812;28;20019;-63
2021/05/31 00:02:19;;;;;;;26.88;13.35;;;14.00;99.90;;;;;;2070955;28;20471;-62
2021/05/31 00:03:20;;;;;;;22.77;13.40;;;13.90;99.90;;;;;;2063761;28;20113;-65
2021/05/31 00:04:21;;;;;;;22.38;12.73;;;13.90;99.90;;;;;;2094916;28;20688;-62
2021/05/31 00:05:25;;;;;;;27.35;12.57;;;14.00;99.90;;;;;;2057944;28;20034;-62
2021/05/31 00:06:25;;;;;;;22.38;12.70;;;14.00;99.90;;;;;;2054628;28;20106;-64
2021/05/31 00:07:26;;;;;;;26.48;13.30;;;14.00;99.90;;;;;;2097140;28;20012;-63
2021/05/31 00:08:27;;;;;;;21.48;12.80;;;14.00;99.90;;;;;;2086104;28;20043;-62
2021/05/31 00:09:27;;;;;;;26.88;13.65;;;14.00;99.90;;;;;;2103682;28;20471;-63
2021/05/31 00:10:28;;;;;;;27.23;13.70;;;14.00;99.90;;;;;;2076370;28;20071;-63
2021/05/31 00:11:29;;;;;;;23.95;11.93;;;14.00;99.90;;;;;;2053458;28;20521;-63
2021/05/31 00:12:30;;;;;;;22.65;12.48;;;14.00;99.90;;;;;;2054998;28;20168;-62
2021/05/31 00:13:30;;;;;;;25.60;12.70;;;14.00;99.90;;;;;;2049320;28;20051;-63
2021/05/31 00:14:31;;;;;;;24.52;12.48;;;13.90;99.90;;;;;;2053509;28;20022;-69
2021/05/31 00:15:32;;;;;;;26.48;13.63;;;13.90;99.90;;;;;;2056663;28;20084;-63
2021/05/31 00:16:33;;;;;;;23.08;12.77;;;13.90;99.90;;;;;;2055994;28;20057;-62
2021/05/31 00:17:35;;;;;;;23.63;13.07;;;13.90;99.90;;;;;;2056225;28;20027;-63
2021/05/31 00:18:35;;;;;;;21.23;13.15;;;13.80;99.90;;;;;;2049754;28;20028;-63
2021/05/31 00:19:36;;;;;;;27.75;13.45;;;13.90;99.90;;;;;;2059314;28;20152;-62
2021/05/31 00:20:37;;;;;;;25.85;13.23;;;13.80;99.90;;;;;;2051655;28;20023;-63
2021/05/31 00:21:37;;;;;;;23.80;12.93;;;13.80;99.90;;;;;;2055481;28;20035;-65
2021/05/31 00:22:38;;;;;;;21.35;12.68;;;13.80;99.90;;;;;;2056370;28;20019;-62
2021/05/31 00:23:40;;;;;;;25.92;13.75;;;13.80;99.90;;;;;;2050607;28;20059;-63
2021/05/31 00:24:40;;;;;;;24.35;13.68;;;13.80;99.90;;;;;;2052861;28;20027;-62
2021/05/31 00:25:41;;;;;;;23.58;12.73;;;13.80;99.90;;;;;;2050914;28;20035;-62
2021/05/31 00:26:43;;;;;;;23.80;12.85;;;13.80;99.90;;;;;;2054732;28;20023;-62
2021/05/31 00:27:44;;;;;;;25.05;13.10;;;13.80;99.90;;;;;;2056179;28;20022;-63
2021/05/31 00:28:45;;;;;;;27.80;12.93;;;13.80;99.90;;;;;;2056164;28;20134;-63
2021/05/31 00:29:55;;;;;;;23.13;12.57;;;13.80;99.90;;;;;;2056397;28;20045;-62
2021/05/31 00:30:55;;;;;;;20.08;11.98;;;13.80;99.90;;;;;;2050649;28;20440;-62
2021/05/31 00:31:57;;;;;;;25.65;13.00;;;13.80;99.90;;;;;;2039559;29;20038;-62
2021/05/31 00:32:58;;;;;;;23.55;12.90;;;13.80;99.90;;;;;;2050402;28;20027;-62
2021/05/31 00:33:59;;;;;;;25.38;12.73;;;13.80;99.90;;;;;;2056455;28;20045;-62
2021/05/31 00:35:00;;;;;;;29.52;13.25;;;13.80;99.90;;;;;;2056159;28;20019;-63
2021/05/31 00:36:01;;;;;;;20.60;12.05;;;13.70;99.90;;;;;;2053467;28;20364;-63
2021/05/31 00:37:02;;;;;;;21.00;12.05;;;13.80;99.90;;;;;;2049492;28;20035;-63
2021/05/31 00:38:03;;;;;;;26.85;13.30;;;13.80;99.90;;;;;;2055419;28;20449;-65
2021/05/31 00:39:04;;;;;;;22.60;12.63;;;13.80;99.90;;;;;;2056179;28;20027;-63
2021/05/31 00:40:06;;;;;;;24.63;12.23;;;13.80;99.90;;;;;;2053730;28;20031;-63
2021/05/31 00:41:08;;;;;;;20.42;11.77;;;13.80;99.90;;;;;;2055973;28;20034;-63
2021/05/31 00:42:08;;;;;;;23.15;12.43;;;13.80;99.90;;;;;;2055065;28;20038;-63
2021/05/31 00:43:09;;;;;;;27.52;12.13;;;13.80;99.90;;;;;;2052907;28;20103;-63
2021/05/31 00:44:10;;;;;;;25.05;12.63;;;13.80;99.90;;;;;;2054729;28;20494;-63
2021/05/31 00:45:11;;;;;;;20.27;11.10;;;13.80;99.90;;;;;;2055034;28;20015;-62
2021/05/31 00:46:12;;;;;;;20.08;10.80;;;13.80;99.90;;;;;;2047314;28;20293;-62
2021/05/31 00:47:13;;;;;;;20.92;11.60;;;13.80;99.90;;;;;;2054490;28;20824;-62
2021/05/31 00:48:15;;;;;;;23.85;11.73;;;13.80;99.90;;;;;;2051939;28;20228;-63
2021/05/31 00:49:18;;;;;;;21.80;11.38;;;13.90;99.90;;;;;;2047278;28;20058;-63
2021/05/31 00:50:19;;;;;;;24.00;11.85;;;13.90;99.90;;;;;;2050294;28;20015;-62
2021/05/31 00:51:20;;;;;;;20.17;11.07;;;13.90;99.90;;;;;;2054850;28;20078;-63
2021/05/31 00:52:22;;;;;;;25.38;12.18;;;13.90;99.90;;;;;;2070858;28;20685;-62
2021/05/31 00:53:22;;;;;;;24.20;11.60;;;13.90;99.90;;;;;;2051161;28;20030;-62
2021/05/31 00:54:23;;;;;;;27.35;12.05;;;13.90;99.90;;;;;;2047230;28;20375;-62
2021/05/31 00:55:24;;;;;;;25.88;11.93;;;13.90;99.90;;;;;;2049989;28;20976;-62
2021/05/31 00:56:26;;;;;;;22.33;11.60;;;13.90;99.90;;;;;;2054711;28;20027;-62
2021/05/31 00:57:27;;;;;;;;;;;13.90;99.90;;;;;;2047413;28;20031;-62
2021/05/31 00:58:28;;;;;;;21.08;11.85;;;13.80;99.90;;;;;;2041963;28;20006;-63
2021/05/31 00:59:29;;;;;;;22.80;11.50;;;13.80;99.90;;;;;;2046692;28;20512;-62
2021/05/31 01:00:30;;;;;;;19.98;11.20;;;13.80;99.90;;;;;;2052806;28;20031;-63
2021/05/31 01:01:31;;;;;;;23.63;11.45;;;13.80;99.90;;;;;;2054017;28;20027;-62
2021/05/31 01:02:31;;;;;;;25.65;11.95;;;13.80;99.90;;;;;;2054714;28;20031;-62
2021/05/31 01:03:33;;;;;;;18.88;11.50;;;13.80;99.90;;;;;;2069166;28;21943;-62
2021/05/31 01:04:34;;;;;;;19.77;11.27;;;13.80;99.90;;;;;;2097580;28;20554;-63
2021/05/31 01:06:00;;;;;;;28.48;12.45;;;13.80;99.90;;;;;;2051654;28;20027;-63
2021/05/31 01:07:38;;;;;;;22.70;11.73;;;13.80;99.90;;;;;;2048811;28;20022;-62
2021/05/31 01:08:52;;;;;;;21.77;11.85;;;13.80;99.90;;;;;;2053789;28;20031;-62
2021/05/31 01:10:22;;;;;;;20.60;11.23;;;13.80;99.90;;;;;;2055218;28;20033;-62
2021/05/31 01:11:39;;;;;;;15.38;11.23;;;13.80;99.90;;;;;;2055379;28;20025;-63
2021/05/31 01:12:46;;;;;;;17.98;11.02;;;13.80;99.90;;;;;;2050829;28;20060;-62
2021/05/31 01:14:09;;;;;;;24.70;11.85;;;13.80;99.90;;;;;;2047718;28;20024;-63
2021/05/31 01:15:14;;;;;;;20.33;12.05;;;13.80;99.90;;;;;;2046919;28;20122;-62
2021/05/31 01:16:30;;;;;;;21.05;11.27;;;13.80;99.90;;;;;;2060579;28;20455;-62
2021/05/31 01:17:58;;;;;;;19.80;11.07;;;13.80;99.90;;;;;;2067163;28;20026;-63
2021/05/31 01:19:05;;;;;;;20.70;11.20;;;13.80;99.90;;;;;;2055540;28;20465;-62
2021/05/31 01:20:35;;;;;;;18.65;9.88;;;13.80;99.90;;;;;;2068626;28;20034;-64
2021/05/31 01:22:07;;;;;;;16.50;9.55;;;13.80;99.90;;;;;;2054425;28;20445;-63
2021/05/31 01:23:12;;;;;;;19.13;9.88;;;13.90;99.90;;;;;;2052497;28;20536;-63
2021/05/31 01:24:33;;;;;;;19.70;10.75;;;14.00;99.90;;;;;;2054634;28;20019;-64
2021/05/31 01:25:55;;;;;;;18.90;10.98;;;14.00;99.90;;;;;;2064756;28;20494;-65
2021/05/31 01:27:20;;;;;;;15.35;9.98;;;14.00;99.90;;;;;;2055670;28;20534;-63
2021/05/31 01:28:42;;;;;;;15.10;9.77;;;14.00;99.90;;;;;;2055314;28;20636;-64
2021/05/31 01:29:47;;;;;;;17.58;9.93;;;14.00;99.90;;;;;;2044662;28;20023;-63
2021/05/31 01:30:49;;;;;;;16.83;9.98;;;14.00;99.90;;;;;;2047523;28;20046;-66
2021/05/31 01:31:56;;;;;;;21.15;10.43;;;13.90;99.90;;;;;;2050236;28;20499;-64
2021/05/31 01:33:01;;;;;;;17.58;9.75;;;13.90;99.90;;;;;;2055137;28;20509;-63
2021/05/31 01:34:08;;;;;;;15.60;9.88;;;13.90;99.90;;;;;;2055971;28;20030;-65
2021/05/31 01:35:17;;;;;;;20.55;10.20;;;13.90;99.90;;;;;;2054221;28;20034;-62
2021/05/31 01:36:21;;;;;;;27.23;10.80;;;14.00;99.90;;;;;;2054245;28;20452;-62
2021/05/31 01:37:25;;;;;;;18.83;9.48;;;14.00;99.90;;;;;;2061014;28;20038;-62
2021/05/31 01:38:28;;;;;;;17.10;10.73;;;14.00;99.90;;;;;;2057981;28;20023;-61
2021/05/31 01:39:32;;;;;;;15.43;9.63;;;14.00;99.90;;;;;;2040264;28;20126;-62
2021/05/31 01:40:33;;;;;;;18.77;9.55;;;14.00;99.90;;;;;;2054195;28;20033;-61
2021/05/31 01:41:35;;;;;;;20.60;10.07;;;14.00;99.90;;;;;;2054764;28;20443;-65
2021/05/31 01:42:37;;;;;;;16.75;9.38;;;14.00;99.90;;;;;;2054720;28;20817;-63
2021/05/31 01:43:39;;;;;;;16.67;9.32;;;14.00;99.90;;;;;;2054119;28;20023;-62
2021/05/31 01:44:40;;;;;;;21.27;9.25;;;14.00;99.90;;;;;;2054057;28;20571;-63
2021/05/31 01:45:42;;;;;;;16.20;9.18;;;14.00;99.90;;;;;;2055091;28;20526;-62
2021/05/31 01:46:43;;;;;;;15.85;8.88;;;14.00;99.90;;;;;;2054012;28;20525;-62
2021/05/31 01:47:45;;;;;;;19.83;8.63;;;14.00;99.90;;;;;;2047385;28;20024;-62
2021/05/31 01:48:46;;;;;;;16.60;8.87;;;14.00;99.90;;;;;;2047383;28;20745;-62
2021/05/31 01:49:48;;;;;;;16.25;8.70;;;14.00;99.90;;;;;;2051387;28;20301;-62
2021/05/31 01:50:49;;;;;;;16.42;8.43;;;14.00;99.90;;;;;;2046640;28;20034;-63
2021/05/31 01:51:51;;;;;;;16.70;8.23;;;14.00;99.90;;;;;;2053479;28;20038;-62
2021/05/31 01:52:53;;;;;;;15.80;8.13;;;14.00;99.90;;;;;;2047280;28;20518;-62
2021/05/31 01:53:55;;;;;;;10.63;7.60;;;14.10;99.90;;;;;;2049156;28;20031;-62
2021/05/31 01:54:57;;;;;;;13.68;7.43;;;14.10;99.90;;;;;;2048238;28;20788;-62
2021/05/31 01:55:58;;;;;;;18.02;8.50;;;14.10;99.90;;;;;;2054434;28;20548;-62
2021/05/31 01:57:00;;;;;;;19.83;8.10;;;14.20;99.90;;;;;;2054492;28;20502;-62
2021/05/31 01:58:01;;;;;;;15.18;8.10;;;14.20;99.90;;;;;;2055412;28;20714;-62
2021/05/31 01:59:04;;;;;;;10.95;7.30;;;14.20;99.90;;;;;;2052230;28;20125;-62
2021/05/31 02:00:07;;;;;;;16.35;7.40;;;14.20;99.90;;;;;;2041721;28;20054;-62
2021/05/31 02:01:09;;;;;;;12.43;7.20;;;14.30;99.90;;;;;;2046203;28;20024;-62
2021/05/31 02:02:10;;;;;;;13.65;7.45;;;14.30;99.90;;;;;;2051124;28;20057;-62
2021/05/31 02:03:11;;;;;;;14.98;7.43;;;14.40;99.90;;;;;;2054066;28;20026;-61
2021/05/31 02:04:12;;;;;;;13.20;7.60;;;14.40;99.90;;;;;;2078493;28;20039;-62
2021/05/31 02:05:15;;;;;;;13.05;7.72;;;14.40;99.90;;;;;;2046634;28;20027;-62
2021/05/31 02:06:15;;;;;;;11.93;8.02;;;14.40;99.90;;;;;;2047110;28;20020;-62
2021/05/31 02:07:16;;;;;;;15.45;7.63;;;14.40;99.90;;;;;;2051434;28;20019;-63
2021/05/31 02:08:17;;;;;;;14.30;7.60;;;14.40;99.90;;;;;;2054089;28;20043;-63
2021/05/31 02:09:22;;;;;;;13.30;8.00;;;14.40;99.90;;;;;;2054661;28;20054;-63
2021/05/31 02:10:23;;;;;;;14.48;7.80;;;14.30;99.90;;;;;;2053882;28;20497;-63
2021/05/31 02:11:43;;;;;;;15.35;8.18;;;14.30;99.90;;;;;;2053980;28;20014;-62
2021/05/31 02:12:52;;;;;;;13.90;8.65;;;14.30;99.90;;;;;;2054685;28;20418;-62
2021/05/31 02:13:58;;;;;;;15.50;8.45;;;14.30;99.90;;;;;;2053024;28;20030;-62
2021/05/31 02:15:08;;;;;;;13.70;7.75;;;14.30;99.90;;;;;;2054344;28;20023;-63
2021/05/31 02:16:18;;;;;;;14.02;8.05;;;14.20;99.90;;;;;;2077099;28;20016;-63
2021/05/31 02:18:04;;;;;;;17.98;8.75;;;14.20;99.90;;;;;;2095611;28;20020;-63
2021/05/31 02:19:08;;;;;;;21.23;7.32;;;14.20;99.90;;;;;;2080732;28;20025;-62
2021/05/31 02:20:13;;;;;;;11.75;7.25;;;14.20;99.90;;;;;;2087372;28;20481;-63
2021/05/31 02:21:16;;;;;;;16.70;7.57;;;14.20;99.90;;;;;;2081036;28;20171;-62
2021/05/31 02:22:17;;;;;;;11.82;7.72;;;14.10;99.90;;;;;;2081300;28;20112;-62
2021/05/31 02:23:19;;;;;;;14.68;7.78;;;14.20;99.90;;;;;;2078829;28;20071;-62
2021/05/31 02:24:19;;;;;;;;;;;14.20;99.90;;;;;;2079150;28;20032;-62
2021/05/31 02:25:21;;;;;;;15.25;7.72;;;14.20;99.90;;;;;;2051040;28;19940;-62
2021/05/31 02:26:22;;;;;;;14.05;7.57;;;14.20;99.90;;;;;;2046745;28;20579;-63
2021/05/31 02:27:23;;;;;;;15.02;7.30;;;14.20;99.90;;;;;;2047065;29;20446;-62
2021/05/31 02:28:24;;;;;;;17.73;7.70;;;14.20;99.90;;;;;;2054289;28;20050;-62
2021/05/31 02:29:26;;;;;;;16.20;7.13;;;14.20;99.90;;;;;;2055031;28;20031;-62
2021/05/31 02:30:27;;;;;;;16.83;7.75;;;14.20;99.90;;;;;;2055156;28;20011;-62
2021/05/31 02:31:27;;;;;;;14.35;8.15;;;14.20;99.90;;;;;;2054953;28;20634;-62
2021/05/31 02:32:28;;;;;;;15.27;7.63;;;14.20;99.90;;;;;;2055138;28;20027;-62
2021/05/31 02:33:29;;;;;;;12.98;7.55;;;14.20;99.90;;;;;;2049554;28;20031;-62
2021/05/31 02:34:30;;;;;;;13.27;7.38;;;14.20;99.90;;;;;;2054591;28;20072;-62
2021/05/31 02:35:33;;;;;;;13.30;7.88;;;14.20;99.90;;;;;;2051229;28;20487;-62
2021/05/31 02:36:35;;;;;;;17.48;7.53;;;14.20;99.90;;;;;;2050214;28;20023;-62
2021/05/31 02:37:38;;;;;;;14.20;7.65;;;14.20;99.90;;;;;;2046421;28;20032;-62
2021/05/31 02:38:38;;;;;;;17.15;7.75;;;14.20;99.90;;;;;;2046514;28;20027;-62
2021/05/31 02:39:39;;;;;;;16.88;7.80;;;14.20;99.90;;;;;;2048397;28;20440;-62
2021/05/31 02:40:40;;;;;;;11.13;7.18;;;14.20;99.90;;;;;;2051342;28;20061;-63
2021/05/31 02:41:41;;;;;;;17.50;8.52;;;14.20;99.90;;;;;;2049057;28;20022;-63
2021/05/31 02:42:44;;;;;;;10.52;7.22;;;14.20;99.90;;;;;;2047151;29;20383;-63
2021/05/31 02:43:45;;;;;;;14.07;7.10;;;14.20;99.90;;;;;;2054315;28;20027;-62
2021/05/31 02:44:45;;;;;;;13.38;7.28;;;14.20;99.90;;;;;;2064803;28;20018;-62
2021/05/31 02:45:47;;;;;;;11.63;7.18;;;14.20;99.90;;;;;;2096416;28;20471;-62
2021/05/31 02:46:48;;;;;;;15.70;7.45;;;14.20;99.90;;;;;;2072484;28;20015;-63
2021/05/31 02:47:49;;;;;;;13.75;7.28;;;14.10;99.90;;;;;;2055045;28;20053;-63
2021/05/31 02:48:50;;;;;;;13.32;7.65;;;14.10;99.90;;;;;;2054388;28;20018;-62
2021/05/31 02:49:50;;;;;;;14.98;7.57;;;14.10;99.90;;;;;;2052483;28;20668;-63
2021/05/31 02:50:56;;;;;;;17.42;7.70;;;14.10;99.90;;;;;;2046973;28;20449;-62
2021/05/31 02:51:56;;;;;;;14.77;8.05;;;14.10;99.90;;;;;;2049612;28;20057;-62
2021/05/31 02:52:58;;;;;;;12.85;7.75;;;14.10;99.90;;;;;;2046405;28;20442;-63
2021/05/31 02:53:58;;;;;;;15.38;7.57;;;14.10;99.90;;;;;;2053869;28;20681;-62
2021/05/31 02:54:59;;;;;;;19.95;8.32;;;14.00;99.90;;;;;;2050396;28;20085;-62
2021/05/31 02:56:02;;;;;;;16.30;7.50;;;14.00;99.90;;;;;;2050987;28;20082;-62
2021/05/31 02:57:03;;;;;;;15.68;8.88;;;14.00;99.90;;;;;;2046323;28;20027;-62
2021/05/31 02:58:04;;;;;;;12.98;7.90;;;13.90;99.90;;;;;;2046466;28;20035;-62
2021/05/31 02:59:05;;;;;;;14.57;7.90;;;13.90;99.90;;;;;;2046156;28;20078;-62
2021/05/31 03:00:08;;;;;;;17.67;8.10;;;13.80;99.90;;;;;;2054432;28;20035;-62
2021/05/31 03:01:09;;;;;;;16.77;8.32;;;13.80;99.90;;;;;;2048834;28;20028;-63
2021/05/31 03:02:09;;;;;;;10.50;7.28;;;13.80;99.90;;;;;;2046884;28;20051;-62
2021/05/31 03:03:11;;;;;;;16.83;7.72;;;13.80;99.90;;;;;;2046331;28;20023;-63
2021/05/31 03:04:11;;;;;;;19.83;8.05;;;13.70;99.90;;;;;;2054196;28;20564;-63
2021/05/31 03:05:21;;;;;;;17.75;8.15;;;13.70;99.90;;;;;;2054468;28;20054;-63
2021/05/31 03:06:22;;;;;;;17.98;8.05;;;13.70;99.90;;;;;;2054841;28;20037;-63
2021/05/31 03:07:23;;;;;;;15.05;7.75;;;13.70;99.90;;;;;;2055247;28;20041;-67
2021/05/31 03:08:23;;;;;;;13.30;7.18;;;13.70;99.90;;;;;;2052473;28;20724;-63
2021/05/31 03:09:24;;;;;;;11.98;7.75;;;13.70;99.90;;;;;;2047825;28;20151;-63
2021/05/31 03:10:26;;;;;;;20.17;7.80;;;13.70;99.90;;;;;;2047743;28;20023;-63
2021/05/31 03:11:27;;;;;;;12.30;7.70;;;13.70;99.90;;;;;;2054201;28;20106;-63
2021/05/31 03:12:28;;;;;;;13.95;8.60;;;13.70;99.90;;;;;;2054722;28;20030;-63
2021/05/31 03:13:28;;;;;;;15.13;7.70;;;13.60;99.90;;;;;;2054951;28;20034;-63
2021/05/31 03:14:29;;;;;;;13.35;8.10;;;13.70;99.90;;;;;;2054085;28;20027;-62
2021/05/31 03:15:30;;;;;;;18.17;8.15;;;13.60;99.90;;;;;;2046202;29;20505;-62
2021/05/31 03:16:31;;;;;;;13.25;7.93;;;13.60;99.90;;;;;;2054167;28;20107;-64
2021/05/31 03:17:32;;;;;;;14.68;8.15;;;13.60;99.90;;;;;;2054219;28;20425;-62
2021/05/31 03:18:33;;;;;;;14.15;7.72;;;13.50;99.90;;;;;;2050468;28;20035;-62
2021/05/31 03:19:33;;;;;;;15.15;8.20;;;13.50;99.90;;;;;;2047642;28;20449;-63
2021/05/31 03:20:34;;;;;;;15.30;8.50;;;13.50;99.90;;;;;;2046292;28;20031;-62
2021/05/31 03:21:35;;;;;;;16.55;8.45;;;13.50;99.90;;;;;;2053132;28;20027;-63
2021/05/31 03:22:36;;;;;;;14.20;8.30;;;13.40;99.90;;;;;;2054034;28;20065;-63
2021/05/31 03:23:37;;;;;;;15.15;8.88;;;13.40;99.90;;;;;;2054218;28;20026;-62
2021/05/31 03:24:38;;;;;;;14.10;8.45;;;13.40;99.90;;;;;;2054165;28;20019;-62
2021/05/31 03:25:39;;;;;;;15.27;8.40;;;13.40;99.90;;;;;;2054459;28;20093;-64
2021/05/31 03:26:40;;;;;;;17.40;8.93;;;13.30;99.90;;;;;;2053147;28;20031;-62
2021/05/31 03:27:41;;;;;;;13.98;8.00;;;13.30;99.90;;;;;;2054658;28;20042;-63
2021/05/31 03:28:42;;;;;;;15.98;9.05;;;13.30;99.90;;;;;;2047937;28;20034;-63
2021/05/31 03:29:43;;;;;;;16.25;9.15;;;13.30;99.90;;;;;;2050748;28;20019;-63
2021/05/31 03:30:43;;;;;;;16.45;8.73;;;13.30;99.90;;;;;;2048456;28;20035;-62
2021/05/31 03:31:44;;;;;;;14.48;8.60;;;13.30;99.90;;;;;;2048052;28;20027;-63
2021/05/31 03:32:45;;;;;;;19.60;8.93;;;13.30;99.90;;;;;;2047692;28;20461;-63
2021/05/31 03:33:46;;;;;;;19.73;8.27;;;13.30;99.90;;;;;;2054901;28;20524;-62
2021/05/31 03:34:46;;;;;;;15.82;8.38;;;13.20;99.90;;;;;;2048965;28;20062;-62
2021/05/31 03:35:47;;;;;;;14.57;8.15;;;13.20;99.90;;;;;;2051114;28;20023;-62
2021/05/31 03:36:48;;;;;;;15.55;8.93;;;13.20;99.90;;;;;;2046091;28;20029;-62
2021/05/31 03:37:49;;;;;;;16.40;8.75;;;13.20;99.90;;;;;;2046239;28;20411;-63
2021/05/31 03:38:50;;;;;;;16.00;8.50;;;13.20;99.90;;;;;;2054321;28;20042;-63
2021/05/31 03:39:50;;;;;;;15.82;8.77;;;13.20;99.90;;;;;;2046049;28;20031;-62
2021/05/31 03:40:51;;;;;;;14.35;8.13;;;13.20;99.90;;;;;;2054228;28;20023;-61
2021/05/31 03:41:52;;;;;;;15.23;8.25;;;13.20;99.90;;;;;;2054626;28;20053;-62
2021/05/31 03:42:54;;;;;;;15.45;8.60;;;13.20;99.90;;;;;;2048120;28;20501;-62
2021/05/31 03:43:55;;;;;;;13.75;7.82;;;13.20;99.90;;;;;;2048767;28;20074;-63
2021/05/31 03:44:56;;;;;;;15.05;8.15;;;13.20;99.90;;;;;;2051348;28;20053;-62
2021/05/31 03:45:56;;;;;;;19.40;8.52;;;13.20;99.90;;;;;;2046423;28;20031;-62
2021/05/31 03:46:57;;;;;;;15.05;8.95;;;13.20;99.90;;;;;;2053914;28;20034;-62
2021/05/31 03:47:57;;;;;;;12.05;8.52;;;13.20;99.90;;;;;;2054678;28;20027;-63
2021/05/31 03:48:58;;;;;;;15.02;8.38;;;13.20;99.90;;;;;;2056376;28;20035;-62
2021/05/31 03:49:59;;;;;;;15.23;8.20;;;13.20;99.90;;;;;;2056743;28;20019;-68
2021/05/31 03:51:10;;;;;;;17.13;8.13;;;13.20;99.90;;;;;;2049639;28;20027;-62
2021/05/31 03:52:11;;;;;;;11.60;8.10;;;13.20;99.90;;;;;;2056374;28;20025;-63
2021/05/31 03:53:11;;;;;;;12.32;7.72;;;13.10;99.90;;;;;;2050742;28;20042;-64
2021/05/31 03:54:13;;;;;;;13.18;8.38;;;13.20;99.90;;;;;;2056475;28;20563;-67
2021/05/31 03:55:13;;;;;;;17.95;9.60;;;13.20;99.90;;;;;;2056246;28;20121;-63
2021/05/31 03:56:14;;;;;;;12.57;7.80;;;13.20;99.90;;;;;;2056746;28;20023;-63
2021/05/31 03:57:16;;;;;;;14.65;8.35;;;13.20;99.90;;;;;;2091792;28;20028;-63
2021/05/31 03:58:16;;;;;;;14.55;8.10;;;13.20;99.90;;;;;;2066107;28;20030;-64
2021/05/31 03:59:18;;;;;;;15.43;7.93;;;13.20;99.90;;;;;;2056669;28;20049;-67
2021/05/31 04:00:19;;;;;;;14.07;8.05;;;13.20;99.90;;;;;;2056678;28;20019;-66
2021/05/31 04:01:20;;;;;;;13.05;7.55;;;13.20;99.90;;;;;;2056560;28;20026;-64
2021/05/31 04:02:21;;;;;;;15.02;8.15;;;13.20;99.90;;;;;;2054836;28;20046;-64
2021/05/31 04:03:22;;;;;;;16.00;8.70;;;13.20;99.90;;;;;;2056314;28;20541;-69
2021/05/31 04:04:23;;;;;;;17.33;8.65;;;13.20;99.90;;;;;;2057122;28;20448;-64
2021/05/31 04:05:28;;;;;;;14.85;8.35;;;13.20;99.90;;;;;;2051211;28;20025;-63
2021/05/31 04:11:37;;;;;;;14.50;7.32;;;13.30;99.90;;;;;;2048757;29;20465;-64
2021/05/31 04:12:38;;;;;;;11.10;8.13;;;13.40;99.90;;;;;;2052237;28;20029;-63
2021/05/31 04:13:38;;;;;;;14.00;8.55;;;13.40;99.90;;;;;;2055768;28;20034;-64
2021/05/31 04:14:39;;;;;;;11.55;7.65;;;13.40;99.90;;;;;;2054737;28;20034;-63
2021/05/31 04:15:40;;;;;;;12.70;7.63;;;13.40;99.90;;;;;;2047656;28;20023;-63
2021/05/31 04:16:44;;;;;;;14.00;7.68;;;13.40;99.90;;;;;;2047285;28;20073;-63
2021/05/31 04:17:44;;;;;;;12.25;7.53;;;13.40;99.90;;;;;;2053571;28;20023;-62
2021/05/31 04:18:45;;;;;;;15.18;8.43;;;13.50;99.90;;;;;;2052166;28;20574;-63
2021/05/31 04:19:46;;;;;;;13.63;7.47;;;13.50;99.90;;;;;;2057029;28;20451;-62
2021/05/31 04:20:46;;;;;;;12.90;8.15;;;13.50;99.90;;;;;;2054998;28;20050;-62
2021/05/31 04:21:49;;;;;;;15.65;7.70;;;13.50;99.90;;;;;;2055393;28;20027;-63
2021/05/31 04:22:50;;;;;;;18.15;8.70;;;13.50;99.90;;;;;;2048379;28;20579;-63
2021/05/31 04:23:51;;;;;;;14.95;8.00;;;13.50;99.90;;;;;;2053862;28;20034;-63
2021/05/31 04:24:51;;;;;;;12.20;7.72;;;13.50;99.90;;;;;;2049748;28;20454;-63
2021/05/31 04:25:52;;;;;;;12.82;7.43;;;13.50;99.90;;;;;;2047595;28;20031;-63
2021/05/31 04:26:53;;;;;;;13.38;7.25;;;13.50;99.90;;;;;;2048626;28;20439;-62
2021/05/31 04:27:53;;;;;;;12.88;7.10;;;13.50;99.90;;;;;;2048406;28;20019;-63
2021/05/31 04:28:54;;;;;;;19.73;7.93;;;13.60;99.90;;;;;;2047768;28;20625;-63
2021/05/31 04:29:55;;;;;;;13.30;8.25;;;13.60;99.90;;;;;;2055181;28;20023;-63
2021/05/31 04:30:55;;;;;;;16.20;8.00;;;13.60;99.90;;;;;;2054972;28;20027;-62
2021/05/31 04:31:56;;;;;;;12.77;7.20;;;13.60;99.90;;;;;;2049885;28;20102;-63
2021/05/31 04:32:57;;;;;;;11.48;8.23;;;13.60;99.90;;;;;;2047343;28;20070;-63
2021/05/31 04:33:58;;;;;;;13.10;7.20;;;13.70;99.90;;;;;;2047647;28;20042;-62
2021/05/31 04:34:58;;;;;;;15.13;7.15;;;13.70;99.90;;;;;;2050003;28;20054;-63
2021/05/31 04:35:59;;;;;;;12.75;7.65;;;13.70;99.90;;;;;;2047207;28;20733;-63
2021/05/31 04:37:00;;;;;;;14.25;7.35;;;13.70;99.90;;;;;;2049940;28;20061;-63
2021/05/31 04:38:01;;;;;;;12.32;7.30;;;13.70;99.90;;;;;;2051758;28;20055;-63
2021/05/31 04:39:05;;;;;;;12.10;7.10;;;13.70;99.90;;;;;;2046801;29;20114;-63
2021/05/31 04:40:06;;;;;;;13.93;7.97;;;13.70;99.90;;;;;;2053521;28;20061;-63
2021/05/31 04:41:07;;;;;;;14.37;7.60;;;13.70;99.90;;;;;;2049069;28;20038;-63
2021/05/31 04:42:08;;;;;;;12.20;7.28;;;13.70;99.90;;;;;;2053798;28;20314;-63
2021/05/31 04:43:09;;;;;;;15.48;8.18;;;13.80;99.90;;;;;;2051376;28;20130;-63
2021/05/31 04:44:10;;;;;;;12.43;7.88;;;13.80;99.90;;;;;;2047562;28;20612;-63
2021/05/31 04:45:11;;;;;;;16.77;7.80;;;13.80;99.90;;;;;;2050651;28;20027;-64
2021/05/31 04:46:11;;;;;;;12.00;7.65;;;13.80;99.90;;;;;;2048780;28;20046;-64
2021/05/31 04:47:12;;;;;;;16.80;7.68;;;13.70;99.90;;;;;;2048843;28;20061;-63
2021/05/31 04:48:13;;;;;;;14.40;7.93;;;13.80;99.90;;;;;;2047203;28;20015;-63
2021/05/31 04:49:13;;;;;;;16.52;8.35;;;13.70;99.90;;;;;;2047125;28;20103;-63
2021/05/31 04:50:14;;;;;;;15.20;8.07;;;13.70;99.90;;;;;;2047254;28;20486;-63
2021/05/31 04:51:15;;;;;;;14.43;8.38;;;13.70;99.90;;;;;;2047821;29;20043;-62
2021/05/31 04:52:15;;;;;;;14.25;7.93;;;13.70;99.90;;;;;;2054769;28;20061;-63
2021/05/31 04:53:16;;;;;;;11.00;7.93;;;13.70;99.90;;;;;;2055510;28;20065;-64
2021/05/31 04:54:17;;;;;;;18.23;9.27;;;13.70;99.90;;;;;;2055194;28;20034;-63
2021/05/31 04:55:18;;;;;;;11.97;8.30;;;13.80;99.90;;;;;;2054721;28;20023;-63
2021/05/31 04:56:19;;;;;;;12.95;8.68;;;14.00;99.90;;;;;;2053305;28;20251;-63
2021/05/31 04:57:21;;;;;;;13.18;8.15;;;14.30;99.90;;;;;;2048199;28;20165;-63
2021/05/31 04:58:23;;;;;;;13.40;8.27;;;14.60;99.90;;;;;;2049431;28;20019;-63
2021/05/31 04:59:24;;;;;;;15.10;8.07;;;15.00;99.90;;;;;;2047012;28;20035;-63
2021/05/31 05:00:24;;;;;;;12.02;7.82;;;15.40;99.90;;;;;;2051699;28;20070;-63
2021/05/31 05:01:25;;;;;;;13.43;8.32;;;15.80;99.90;;;;;;2054879;28;20031;-63
2021/05/31 05:02:26;;;;;;;13.88;8.20;;;16.20;99.90;;;;;;2054655;28;20097;-63
2021/05/31 05:03:27;;;;;;;18.45;8.80;;;16.50;99.90;;;;;;2054725;28;20010;-63
2021/05/31 05:04:27;;;;;;;15.75;8.32;;;16.70;99.90;;;;;;2046812;28;20035;-63
2021/05/31 05:05:28;;;;;;;16.80;8.48;;;17.00;99.90;;;;;;2051737;28;20631;-63
2021/05/31 05:06:28;;;;;;;17.15;8.10;;;17.30;99.90;;;;;;2042615;29;20126;-63
2021/05/31 05:07:29;;;;;;;11.73;7.47;;;17.50;99.90;;;;;;2045338;28;20024;-63
2021/05/31 05:08:30;;;;;;;11.80;6.93;;;17.70;99.90;;;;;;2055073;28;20030;-63
2021/05/31 05:09:31;;;;;;;12.90;7.10;;;17.90;99.90;;;;;;2055673;28;20070;-62
2021/05/31 05:10:32;;;;;;;14.55;7.45;;;18.00;99.90;;;;;;2050971;28;20042;-63
2021/05/31 05:11:32;;;;;;;14.57;8.02;;;18.00;99.90;;;;;;2047087;28;20059;-64
2021/05/31 05:12:33;;;;;;;16.38;7.80;;;18.00;99.90;;;;;;2055037;28;20076;-63
2021/05/31 05:13:34;;;;;;;11.77;6.85;;;18.10;99.90;;;;;;2050930;28;20110;-63
2021/05/31 05:14:34;;;;;;;17.65;7.55;;;18.30;99.90;;;;;;2048484;28;20119;-63
2021/05/31 05:15:36;;;;;;;13.68;7.43;;;18.40;99.90;;;;;;2050352;28;20023;-63
2021/05/31 05:16:36;;;;;;;12.50;7.05;;;18.60;99.90;;;;;;2055036;28;20027;-63
2021/05/31 05:17:37;;;;;;;11.60;6.80;;;18.70;99.70;;;;;;2052848;28;20058;-63
2021/05/31 05:18:44;;;;;;;12.05;7.18;;;19.00;99.30;;;;;;2056082;28;20077;-63
2021/05/31 05:19:45;;;;;;;12.48;6.32;;;19.00;99.10;;;;;;2057129;28;20022;-63
2021/05/31 05:20:46;;;;;;;11.38;6.75;;;19.20;99.00;;;;;;2055826;28;20378;-63
2021/05/31 05:21:46;;;;;;;14.50;6.97;;;19.30;98.50;;;;;;2055808;28;20474;-63
2021/05/31 05:22:48;;;;;;;11.35;6.68;;;19.30;98.70;;;;;;2055456;28;20026;-63
2021/05/31 05:23:49;;;;;;;11.97;5.93;;;19.40;98.30;;;;;;2048012;28;20023;-63
2021/05/31 05:24:50;;;;;;;11.10;6.22;;;19.50;98.60;;;;;;2053780;28;20266;-62
2021/05/31 05:25:50;;;;;;;12.50;6.55;;;19.70;97.90;;;;;;2040744;28;20032;-62
2021/05/31 05:26:51;;;;;;;9.63;5.90;;;19.90;98.10;;;;;;2047266;29;20020;-63